Time;durP1;ratioP1;P1;durP2;ratioP2;P2;SDS_P1;SDS_P2;PMS_P1;PMS_P2;Temp;Humidity;BMP_temperature;BMP_pressure;BME280_temperature;BME280_humidity;BME280_pressure;Samples;Min_cycle;Max_cycle;Signal;HPM_P1;HPM_P2
2022/11/10 00:00:40;;;;;;;1.60;1.50;;;;;;;11.13;85.31;96007.13;5114244;28;20441;-53
2022/11/10 00:03:10;;;;;;;4.33;0.93;;;;;;;11.30;84.44;96023.69;5113835;28;20928;-53
2022/11/10 00:05:39;;;;;;;0.87;0.70;;;;;;;10.85;83.88;95948.06;5114076;27;20459;-54
2022/11/10 00:08:10;;;;;;;0.80;0.80;;;;;;;11.32;83.29;96008.31;5113909;28;20520;-53
2022/11/10 00:10:55;;;;;;;1.80;1.70;;;;;;;11.29;83.39;96027.41;5113682;28;20917;-53
2022/11/10 00:13:25;;;;;;;2.00;0.50;;;;;;;10.98;85.35;96013.13;5113404;28;20875;-53
2022/11/10 00:18:41;;;;;;;0.63;0.63;;;;;;;11.01;85.66;96017.91;5113424;28;20437;-53
2022/11/10 00:21:12;;;;;;;0.90;0.90;;;;;;;11.18;85.19;96039.78;5113868;28;20803;-53
2022/11/10 00:23:40;;;;;;;0.70;0.70;;;;;;;10.87;86.38;96011.47;5113005;28;20437;-53
2022/11/10 00:26:15;;;;;;;0.50;0.40;;;;;;;10.88;85.65;96022.88;5113498;27;20886;-54
2022/11/10 00:28:43;;;;;;;0.60;0.60;;;;;;;10.66;88.54;96028.25;5113258;28;20437;-53
2022/11/10 00:31:12;;;;;;;1.60;1.50;;;;;;;10.61;89.24;96025.56;5113260;28;20416;-53
2022/11/10 00:33:44;;;;;;;1.13;0.80;;;;;;;10.71;87.77;96017.69;5113155;28;20436;-53
2022/11/10 00:36:12;;;;;;;4.00;1.90;;;;;;;10.80;87.18;96016.97;5113415;28;20464;-54
2022/11/10 00:38:40;;;;;;;1.10;0.60;;;;;;;10.48;90.37;96018.00;5112923;28;20933;-53
2022/11/10 00:41:08;;;;;;;1.03;0.90;;;;;;;10.64;88.16;96015.25;5113073;28;20427;-53
2022/11/10 00:43:37;;;;;;;1.77;0.97;;;;;;;10.68;87.61;96018.19;5113123;28;20805;-53
2022/11/10 00:46:05;;;;;;;1.30;1.20;;;;;;;10.55;87.68;96000.06;5112891;28;20430;-53
2022/11/10 00:48:33;;;;;;;1.17;1.17;;;;;;;10.21;88.36;95972.97;5112790;28;20437;-54
2022/11/10 00:51:03;;;;;;;0.63;0.63;;;;;;;10.30;90.12;96013.06;5113207;28;20448;-53
2022/11/10 00:53:32;;;;;;;0.73;0.73;;;;;;;10.12;91.62;96004.41;5111779;28;20429;-54
2022/11/10 00:56:00;;;;;;;5.60;0.70;;;;;;;10.32;89.28;96006.47;5112995;28;21001;-54
2022/11/10 00:58:28;;;;;;;0.40;0.30;;;;;;;10.42;88.12;96005.78;5113044;28;20911;-53
2022/11/10 01:01:01;;;;;;;0.80;0.80;;;;;;;10.40;87.75;96000.72;5112572;28;20435;-54
2022/11/10 01:03:29;;;;;;;3.47;1.27;;;;;;;10.48;87.55;96004.75;5112533;28;20424;-54
2022/11/10 01:05:58;;;;;;;0.80;0.80;;;;;;;10.42;88.16;96003.13;5112368;28;20481;-54
2022/11/10 01:08:27;;;;;;;2.70;0.80;;;;;;;10.28;88.48;96009.84;5112878;28;20808;-53
2022/11/10 01:11:01;;;;;;;1.57;0.80;;;;;;;9.67;91.89;95950.94;5112687;28;20444;-53
2022/11/10 01:13:30;;;;;;;0.60;0.60;;;;;;;10.08;90.65;96007.78;5112526;28;20424;-54
2022/11/10 01:16:02;;;;;;;4.43;1.30;;;;;;;9.73;95.79;96002.88;5112358;28;20963;-54
2022/11/10 01:18:31;;;;;;;3.57;2.43;;;;;;;9.53;97.97;96010.56;5112832;28;20783;-53
2022/11/10 01:20:59;;;;;;;0.80;0.80;;;;;;;9.57;98.47;95993.16;5112610;28;20981;-54
2022/11/10 01:23:29;;;;;;;1.00;1.00;;;;;;;9.39;99.40;96007.47;5112667;28;20447;-54
2022/11/10 01:25:58;;;;;;;2.10;2.00;;;;;;;9.61;97.15;96004.88;5111430;28;20505;-54
2022/11/10 01:28:27;;;;;;;1.33;1.00;;;;;;;9.43;94.99;95976.06;5112277;28;20494;-55
2022/11/10 01:30:58;;;;;;;2.57;0.90;;;;;;;9.74;93.48;96009.75;5112154;28;20428;-54
2022/11/10 01:33:27;;;;;;;1.07;0.97;;;;;;;9.85;92.06;96003.56;5112280;28;20427;-54
2022/11/10 01:35:55;;;;;;;1.23;1.17;;;;;;;9.33;92.69;95957.41;5111532;28;20476;-54
2022/11/10 01:38:26;;;;;;;4.83;2.10;;;;;;;9.40;94.02;95989.75;5112185;28;20483;-53
2022/11/10 01:40:56;;;;;;;1.33;0.80;;;;;;;9.41;93.32;95978.94;5112057;28;20440;-54
2022/11/10 01:43:25;;;;;;;0.83;0.83;;;;;;;9.63;91.29;95988.72;5112447;28;20428;-54
2022/11/10 01:45:55;;;;;;;0.73;0.73;;;;;;;9.63;90.72;96005.41;5112226;28;20431;-53
2022/11/10 01:48:31;;;;;;;0.70;0.70;;;;;;;9.89;89.46;96004.66;5112101;28;20938;-54
2022/11/10 01:51:02;;;;;;;0.70;0.50;;;;;;;9.48;92.96;96002.56;5111983;28;20420;-54
2022/11/10 01:53:34;;;;;;;1.10;1.00;;;;;;;8.86;100.00;95970.22;5112049;28;20947;-53
2022/11/10 01:56:07;;;;;;;1.03;0.70;;;;;;;9.58;97.53;96015.94;5111882;28;20484;-53
2022/11/10 01:58:39;;;;;;;1.00;1.00;;;;;;;9.69;94.61;96007.06;5112021;28;20897;-53
2022/11/10 02:01:08;;;;;;;1.97;1.87;;;;;;;8.67;100.00;96004.06;5111844;28;20428;-53
2022/11/10 02:03:41;;;;;;;1.07;1.07;;;;;;;8.67;100.00;96013.81;5111668;28;20424;-54
2022/11/10 02:06:11;;;;;;;1.23;1.23;;;;;;;8.64;100.00;96012.47;5111932;28;20420;-53
2022/11/10 02:08:41;;;;;;;1.10;1.10;;;;;;;8.55;100.00;96008.59;5111753;28;20802;-53
2022/11/10 02:11:11;;;;;;;2.20;2.00;;;;;;;8.44;100.00;96011.31;5111332;28;20427;-53
2022/11/10 02:13:40;;;;;;;1.57;1.27;;;;;;;8.25;100.00;95998.28;5111441;28;20432;-53
2022/11/10 02:16:09;;;;;;;2.40;1.60;;;;;;;8.19;100.00;96009.81;5111428;28;20475;-53
2022/11/10 02:18:38;;;;;;;7.60;3.00;;;;;;;8.08;100.00;96018.56;5111889;28;20428;-54
2022/11/10 02:21:08;;;;;;;0.67;0.50;;;;;;;8.03;100.00;96012.41;5111457;28;20952;-54
2022/11/10 02:23:48;;;;;;;1.90;1.80;;;;;;;8.39;100.00;96017.31;5111764;28;20424;-54
2022/11/10 02:26:21;;;;;;;0.70;0.50;;;;;;;8.87;100.00;96022.88;5111148;28;20467;-54
2022/11/10 02:28:49;;;;;;;1.13;1.13;;;;;;;9.21;96.05;96020.19;5111705;28;20431;-53
2022/11/10 02:31:18;;;;;;;0.60;0.30;;;;;;;9.32;94.79;96014.00;5111272;28;20435;-53
2022/11/10 02:33:47;;;;;;;5.40;1.23;;;;;;;9.48;94.79;96023.75;5111369;28;20943;-53
2022/11/10 02:36:16;;;;;;;0.60;0.60;;;;;;;9.53;93.15;96026.47;5111176;28;20828;-53
2022/11/10 02:38:44;;;;;;;0.73;0.73;;;;;;;8.35;92.55;95841.84;5113764;28;20435;-54
2022/11/10 02:41:13;;;;;;;0.53;0.53;;;;;;;9.46;95.63;96025.84;5115517;28;20428;-53
2022/11/10 02:43:41;;;;;;;1.80;1.17;;;;;;;9.39;93.24;96030.47;5115437;28;20826;-53
2022/11/10 02:46:09;;;;;;;6.20;1.27;;;;;;;8.65;100.00;96034.41;5115398;28;20431;-53
2022/11/10 02:48:38;;;;;;;1.10;1.10;;;;;;;8.62;100.00;96029.59;5115267;28;20420;-54
2022/11/10 02:51:06;;;;;;;0.73;0.73;;;;;;;8.21;100.00;95988.44;5115155;28;20424;-53
2022/11/10 02:53:36;;;;;;;0.93;0.87;;;;;;;8.38;100.00;96039.47;5113964;27;20455;-53
2022/11/10 02:56:05;;;;;;;1.03;0.93;;;;;;;8.34;100.00;96043.63;5115141;28;20471;-54
2022/11/10 02:58:33;;;;;;;1.83;1.70;;;;;;;8.28;100.00;96047.22;5114847;28;20431;-54
2022/11/10 03:01:05;;;;;;;1.10;1.00;;;;;;;8.66;100.00;96034.16;5114759;28;20438;-54
2022/11/10 03:03:34;;;;;;;0.67;0.67;;;;;;;9.08;100.00;96050.44;5114702;28;20420;-53
2022/11/10 03:06:02;;;;;;;2.00;0.70;;;;;;;9.12;99.64;96048.09;5114590;27;20434;-54
2022/11/10 03:08:31;;;;;;;1.80;0.80;;;;;;;9.01;100.00;96047.13;5114923;28;20428;-54
2022/11/10 03:11:00;;;;;;;0.40;0.33;;;;;;;9.22;99.10;96049.03;5114696;27;20424;-53
2022/11/10 03:13:29;;;;;;;1.27;0.90;;;;;;;9.20;99.03;96047.69;5114768;28;20432;-53
2022/11/10 03:16:18;;;;;;;0.60;0.57;;;;;;;9.12;100.00;96037.50;5114558;28;20844;-53
2022/11/10 03:18:47;;;;;;;0.43;0.30;;;;;;;8.95;100.00;96043.59;5114264;28;20922;-53
2022/11/10 03:21:15;;;;;;;1.10;1.00;;;;;;;9.15;100.00;96039.66;5114424;27;20430;-53
2022/11/10 03:23:43;;;;;;;0.87;0.87;;;;;;;9.33;100.00;96040.22;5114293;28;20428;-53
2022/11/10 03:26:13;;;;;;;0.93;0.93;;;;;;;9.13;100.00;96042.56;5114224;28;20505;-53
2022/11/10 03:28:41;;;;;;;0.90;0.80;;;;;;;8.80;100.00;96048.63;5113975;28;20489;-53
2022/11/10 03:31:09;;;;;;;1.80;1.30;;;;;;;8.46;100.00;96051.50;5114439;28;20441;-53
2022/11/10 03:33:38;;;;;;;0.90;0.73;;;;;;;8.53;100.00;96057.41;5114531;28;20431;-53
2022/11/10 03:36:06;;;;;;;1.97;1.87;;;;;;;8.95;100.00;96025.09;5114210;28;20955;-53
2022/11/10 03:38:35;;;;;;;0.50;0.47;;;;;;;9.41;100.00;96050.34;5113923;28;20433;-53
2022/11/10 03:41:03;;;;;;;1.23;1.23;;;;;;;9.41;100.00;96052.22;5113763;28;20447;-53
2022/11/10 03:43:48;;;;;;;0.83;0.80;;;;;;;9.55;98.83;96048.19;5114020;28;20998;-53
2022/11/10 03:46:17;;;;;;;1.43;0.40;;;;;;;9.57;99.17;96048.72;5114112;27;20518;-53
2022/11/10 03:48:46;;;;;;;2.70;1.43;;;;;;;9.49;100.00;96051.78;5113477;27;20436;-53
2022/11/10 03:51:20;;;;;;;1.13;1.03;;;;;;;9.76;98.90;96057.19;5114098;28;20423;-53
2022/11/10 03:53:49;;;;;;;0.80;0.80;;;;;;;9.67;98.90;96054.16;5114052;28;20428;-53
2022/11/10 03:56:17;;;;;;;1.30;1.30;;;;;;;9.54;99.42;96051.84;5113560;28;20467;-53
2022/11/10 03:58:46;;;;;;;0.80;0.80;;;;;;;9.37;100.00;96048.44;5113934;28;20416;-54
2022/11/10 04:01:15;;;;;;;2.00;1.60;;;;;;;9.65;99.64;96055.44;5113760;28;20419;-53
2022/11/10 04:03:44;;;;;;;1.10;1.10;;;;;;;9.68;99.33;96045.19;5113580;28;20420;-53
2022/11/10 04:09:05;;;;;;;0.80;0.80;;;;;;;9.89;97.39;96052.31;5113044;28;20428;-53
2022/11/10 04:17:08;;;;;;;1.17;1.17;;;;;;;9.77;98.83;96056.94;5113261;28;20955;-53
2022/11/10 04:19:36;;;;;;;0.87;0.87;;;;;;;8.95;99.55;95972.22;5113433;28;20424;-53
2022/11/10 04:22:04;;;;;;;1.27;1.27;;;;;;;9.27;100.00;96057.03;5113351;28;20428;-53
2022/11/10 04:24:33;;;;;;;1.50;1.40;;;;;;;9.08;100.00;96057.56;5113337;28;20447;-53
2022/11/10 04:27:01;;;;;;;2.33;1.23;;;;;;;9.11;100.00;96059.72;5112672;28;20467;-53
2022/11/10 04:29:29;;;;;;;1.47;1.37;;;;;;;8.84;100.00;96060.34;5113256;28;20423;-53
2022/11/10 04:31:57;;;;;;;1.43;1.33;;;;;;;8.90;100.00;96054.09;5112454;28;20458;-53
2022/11/10 04:34:27;;;;;;;3.73;2.10;;;;;;;9.20;100.00;96052.97;5112806;28;20555;-53
2022/11/10 04:36:55;;;;;;;1.23;1.23;;;;;;;9.36;100.00;96062.75;5113083;28;20968;-53
2022/11/10 04:39:23;;;;;;;1.83;1.00;;;;;;;9.20;100.00;96063.56;5112772;28;20920;-53
2022/11/10 04:41:52;;;;;;;1.23;1.13;;;;;;;9.26;100.00;96057.31;5112709;28;20424;-53
2022/11/10 04:44:24;;;;;;;1.57;1.50;;;;;;;9.02;100.00;96055.88;5112654;28;20420;-53
2022/11/10 04:46:52;;;;;;;1.00;1.00;;;;;;;8.87;100.00;96048.50;5112554;28;20779;-53
2022/11/10 04:49:20;;;;;;;0.93;0.80;;;;;;;9.05;100.00;96066.78;5112662;28;20433;-53
2022/11/10 04:51:50;;;;;;;1.17;1.10;;;;;;;8.99;100.00;96067.72;5112238;28;20428;-53
2022/11/10 04:54:19;;;;;;;1.67;1.17;;;;;;;8.94;100.00;96070.28;5112834;28;20446;-53
2022/11/10 04:56:47;;;;;;;0.97;0.97;;;;;;;9.02;100.00;96066.44;5112665;28;20470;-54
2022/11/10 04:59:15;;;;;;;0.63;0.63;;;;;;;8.46;100.00;96089.28;5112401;28;20440;-53
2022/11/10 05:01:43;;;;;;;2.73;2.53;;;;;;;7.71;100.00;96033.16;5110935;28;20431;-53
2022/11/10 05:04:12;;;;;;;0.83;0.80;;;;;;;7.90;100.00;96068.91;5112314;28;20502;-54
2022/11/10 05:06:40;;;;;;;1.23;1.23;;;;;;;7.93;100.00;96072.91;5111983;28;20416;-53
2022/11/10 05:09:10;;;;;;;1.90;1.23;;;;;;;8.16;100.00;96078.13;5112162;28;20420;-53
2022/11/10 05:11:38;;;;;;;0.47;0.47;;;;;;;8.52;100.00;96066.41;5112448;28;20439;-52
2022/11/10 05:14:07;;;;;;;0.50;0.30;;;;;;;8.74;100.00;96086.63;5112670;28;20428;-52
2022/11/10 05:16:36;;;;;;;0.70;0.50;;;;;;;8.74;100.00;96089.25;5112482;28;20767;-53
2022/11/10 05:19:04;;;;;;;0.70;0.70;;;;;;;8.85;100.00;96088.38;5112064;28;20432;-53
2022/11/10 05:21:33;;;;;;;1.00;0.83;;;;;;;8.69;100.00;96099.75;5111499;28;20436;-53
2022/11/10 05:24:01;;;;;;;1.07;0.60;;;;;;;8.77;100.00;96091.44;5112084;28;20432;-53
2022/11/10 05:26:31;;;;;;;2.20;0.97;;;;;;;8.64;100.00;96097.00;5111306;27;20983;-53
2022/11/10 05:28:59;;;;;;;0.50;0.50;;;;;;;8.70;100.00;96092.63;5111751;28;20431;-53
2022/11/10 05:31:29;;;;;;;1.67;1.57;;;;;;;8.86;100.00;96099.75;5112369;28;20439;-53
2022/11/10 05:33:57;;;;;;;1.13;1.03;;;;;;;8.86;100.00;96105.03;5111907;28;20432;-53
2022/11/10 05:36:25;;;;;;;5.40;1.13;;;;;;;8.45;100.00;96100.88;5111652;28;20420;-53
2022/11/10 05:38:54;;;;;;;0.90;0.90;;;;;;;8.56;100.00;96107.16;5112029;28;20454;-53
2022/11/10 05:41:22;;;;;;;0.93;0.93;;;;;;;8.76;100.00;96110.16;5111445;28;20900;-53
2022/11/10 05:43:52;;;;;;;0.80;0.70;;;;;;;8.81;100.00;96103.13;5111319;28;20428;-53
2022/11/10 05:46:20;;;;;;;1.00;0.90;;;;;;;8.95;100.00;96111.56;5111907;28;20427;-54
2022/11/10 05:48:48;;;;;;;0.90;0.80;;;;;;;9.31;99.11;96112.94;5110620;28;20428;-54
2022/11/10 05:51:16;;;;;;;0.73;0.73;;;;;;;8.90;98.30;96067.31;5111412;28;20424;-53
2022/11/10 05:53:45;;;;;;;1.07;1.07;;;;;;;9.05;100.00;96121.50;5111364;28;20443;-53
2022/11/10 05:56:13;;;;;;;1.83;1.73;;;;;;;9.05;100.00;96124.13;5111647;28;20523;-53
2022/11/10 05:58:41;;;;;;;0.77;0.77;;;;;;;9.16;99.63;96131.97;5111633;28;21022;-53
2022/11/10 06:01:11;;;;;;;2.30;1.40;;;;;;;8.94;100.00;96134.53;5111491;28;20436;-53
2022/11/10 06:03:39;;;;;;;5.20;1.80;;;;;;;8.87;100.00;96135.72;5110868;28;20428;-53
2022/11/10 06:06:08;;;;;;;1.77;1.00;;;;;;;8.71;100.00;96137.31;5112260;28;20432;-53
2022/11/10 06:08:36;;;;;;;1.07;1.07;;;;;;;8.74;100.00;96139.47;5111458;28;20821;-53
2022/11/10 06:11:05;;;;;;;0.67;0.57;;;;;;;8.84;100.00;96133.56;5111833;28;20435;-53
2022/11/10 06:13:33;;;;;;;1.10;1.10;;;;;;;8.85;100.00;96146.53;5116596;28;20420;-53
2022/11/10 06:16:02;;;;;;;0.63;0.63;;;;;;;8.86;100.00;96145.50;5116306;28;20428;-53
2022/11/10 06:18:31;;;;;;;1.37;1.37;;;;;;;9.04;100.00;96141.84;5115534;28;20467;-53
2022/11/10 06:21:00;;;;;;;1.47;1.37;;;;;;;8.69;100.00;96151.78;5115762;28;20451;-53
2022/11/10 06:23:29;;;;;;;2.20;1.70;;;;;;;8.74;100.00;96144.75;5115788;28;20427;-53
2022/11/10 06:25:57;;;;;;;4.63;1.47;;;;;;;8.86;100.00;96156.06;5115365;28;20482;-57
2022/11/10 06:28:25;;;;;;;1.60;1.50;;;;;;;8.91;100.00;96152.72;5115407;27;20440;-53
2022/11/10 06:30:56;;;;;;;0.60;0.50;;;;;;;8.95;100.00;96157.28;5115371;28;20428;-53
2022/11/10 06:33:25;;;;;;;2.17;1.87;;;;;;;8.76;100.00;96150.59;5115551;28;20424;-53
2022/11/10 06:35:54;;;;;;;0.53;0.53;;;;;;;8.73;100.00;96158.19;5115523;28;20431;-54
2022/11/10 06:38:23;;;;;;;1.63;1.23;;;;;;;9.11;100.00;96160.22;5115001;27;20467;-54
2022/11/10 06:40:51;;;;;;;1.47;0.70;;;;;;;8.88;100.00;96161.91;5115039;27;20436;-53
2022/11/10 06:43:19;;;;;;;0.83;0.80;;;;;;;8.91;100.00;96158.81;5115326;28;20427;-53
2022/11/10 06:45:48;;;;;;;0.63;0.63;;;;;;;9.06;100.00;96160.13;5114751;28;20434;-53
2022/11/10 06:48:16;;;;;;;1.27;0.60;;;;;;;9.22;100.00;96160.13;5114762;28;20892;-53
2022/11/10 06:50:45;;;;;;;2.47;2.37;;;;;;;9.59;100.00;96161.25;5114815;28;21068;-53
2022/11/10 06:53:15;;;;;;;1.33;1.23;;;;;;;9.46;100.00;96168.72;5114664;28;20427;-53
2022/11/10 06:55:44;;;;;;;1.27;1.10;;;;;;;10.01;98.59;96161.59;5115045;28;20432;-53
2022/11/10 06:58:15;;;;;;;2.23;1.63;;;;;;;10.39;94.52;96163.41;5114488;28;20465;-53
2022/11/10 07:00:44;;;;;;;0.60;0.60;;;;;;;10.41;94.53;96161.31;5114157;28;20484;-53
2022/11/10 07:03:14;;;;;;;1.10;0.97;;;;;;;10.40;92.88;96132.44;5114530;28;20920;-53
2022/11/10 07:05:42;;;;;;;2.00;1.50;;;;;;;10.32;94.04;96177.91;5114331;28;20433;-53
2022/11/10 07:08:14;;;;;;;5.50;0.60;;;;;;;10.32;94.34;96167.31;5114414;28;20439;-53
2022/11/10 07:10:45;;;;;;;1.30;1.20;;;;;;;10.31;94.55;96160.38;5114704;28;20448;-54
2022/11/10 07:13:14;;;;;;;3.70;0.93;;;;;;;10.30;94.64;96150.81;5114196;28;20457;-54
2022/11/10 07:15:42;;;;;;;2.23;2.03;;;;;;;10.46;95.08;96164.03;5113704;28;20801;-54
2022/11/10 07:18:10;;;;;;;2.13;2.03;;;;;;;10.70;93.31;96164.56;5113893;28;20532;-54
2022/11/10 07:20:39;;;;;;;1.10;1.00;;;;;;;10.69;91.96;96168.25;5114911;28;20826;-54
2022/11/10 07:23:08;;;;;;;3.20;2.93;;;;;;;10.14;91.30;96075.69;5113290;28;20424;-54
2022/11/10 07:25:38;;;;;;;1.97;1.53;;;;;;;11.14;89.53;96166.06;5113905;28;20440;-54
2022/11/10 07:28:10;;;;;;;0.60;0.60;;;;;;;11.50;87.62;96161.88;5114384;28;20425;-54
2022/11/10 07:30:40;;;;;;;2.67;2.47;;;;;;;11.22;88.42;96160.31;5114325;28;20437;-55
2022/11/10 07:33:12;;;;;;;3.40;3.20;;;;;;;11.10;89.57;96158.88;5113891;28;20484;-55
2022/11/10 07:35:41;;;;;;;2.57;2.37;;;;;;;11.04;90.99;96152.72;5114061;28;20777;-55
2022/11/10 07:38:13;;;;;;;0.90;0.90;;;;;;;10.89;91.37;96160.53;5114052;28;20468;-55
2022/11/10 07:40:41;;;;;;;2.63;2.53;;;;;;;10.77;91.85;96141.31;5113946;27;20449;-55
2022/11/10 07:43:11;;;;;;;5.40;1.43;;;;;;;10.89;91.25;96147.25;5114099;28;20783;-55
2022/11/10 07:45:39;;;;;;;1.33;1.17;;;;;;;10.94;92.08;96144.66;5114145;28;20418;-56
2022/11/10 07:48:08;;;;;;;2.50;1.37;;;;;;;11.20;91.03;96154.47;5114159;28;20451;-55
2022/11/10 07:50:36;;;;;;;2.90;2.60;;;;;;;11.37;89.31;96135.75;5113831;28;20454;-56
2022/11/10 07:53:07;;;;;;;2.43;2.33;;;;;;;12.57;85.27;96154.22;5113727;28;21068;-55
2022/11/10 07:55:37;;;;;;;8.10;1.67;;;;;;;13.72;78.58;96144.03;5113884;28;20435;-53
2022/11/10 07:58:06;;;;;;;1.87;1.77;;;;;;;14.46;75.03;96144.13;5113868;28;20478;-55
2022/11/10 08:00:37;;;;;;;3.07;1.60;;;;;;;14.92;72.18;96126.84;5113853;28;20446;-55
2022/11/10 08:03:06;;;;;;;1.00;1.00;;;;;;;16.17;67.63;96137.53;5113369;27;20421;-57
2022/11/10 08:05:35;;;;;;;3.90;3.37;;;;;;;15.52;66.39;96146.19;5112930;28;20428;-58
2022/11/10 08:08:03;;;;;;;3.33;2.40;;;;;;;15.17;67.59;96128.53;5113521;28;20924;-59
2022/11/10 08:10:33;;;;;;;7.83;3.20;;;;;;;15.40;66.63;96148.38;5113313;28;20431;-58
2022/11/10 08:13:04;;;;;;;5.43;2.10;;;;;;;15.69;66.07;96147.38;5113342;27;20458;-58
2022/11/10 08:15:34;;;;;;;1.30;1.20;;;;;;;16.35;66.39;96147.50;5113076;28;20435;-58
2022/11/10 08:18:05;;;;;;;6.73;2.50;;;;;;;16.96;62.48;96147.56;5113181;28;20422;-57
2022/11/10 08:20:34;;;;;;;2.40;1.80;;;;;;;16.96;61.06;96146.78;5113468;28;20432;-56
2022/11/10 08:23:04;;;;;;;1.70;1.60;;;;;;;17.11;60.09;96141.19;5113320;28;20424;-57
2022/11/10 08:25:34;;;;;;;1.43;1.33;;;;;;;17.83;58.85;96141.69;5112752;28;20439;-57
2022/11/10 08:28:05;;;;;;;1.80;1.70;;;;;;;18.61;57.95;96149.66;5112837;28;20424;-56
2022/11/10 08:30:34;;;;;;;1.50;1.40;;;;;;;18.84;55.95;96135.22;5113011;28;20784;-55
2022/11/10 08:33:06;;;;;;;1.60;1.50;;;;;;;18.53;55.53;96137.72;5113276;28;20510;-55
2022/11/10 08:35:38;;;;;;;1.27;1.20;;;;;;;17.72;55.65;96066.81;5111117;28;20440;-55
2022/11/10 08:38:08;;;;;;;3.23;2.13;;;;;;;18.52;56.14;96141.50;5113178;28;20424;-55
2022/11/10 08:40:37;;;;;;;1.17;1.17;;;;;;;18.99;54.29;96132.19;5112813;28;20458;-54
2022/11/10 08:43:07;;;;;;;2.30;2.10;;;;;;;19.36;53.89;96142.63;5112619;27;20428;-53
2022/11/10 08:45:36;;;;;;;1.03;1.03;;;;;;;19.69;52.02;96139.72;5113406;28;20427;-52
2022/11/10 08:48:08;;;;;;;1.67;0.77;;;;;;;19.80;51.71;96125.72;5113088;28;20440;-53
2022/11/10 08:50:36;;;;;;;2.73;2.03;;;;;;;20.72;51.16;96128.34;5112760;28;20453;-53
2022/11/10 08:53:07;;;;;;;2.10;1.93;;;;;;;20.37;50.27;96139.31;5112095;28;20432;-53
2022/11/10 08:55:35;;;;;;;2.63;1.90;;;;;;;20.40;50.38;96134.13;5113220;28;20814;-52
2022/11/10 08:58:06;;;;;;;7.40;1.33;;;;;;;21.13;49.14;96071.34;5111826;28;20432;-53
2022/11/10 09:00:35;;;;;;;1.50;1.40;;;;;;;21.89;47.10;96129.06;5112483;28;20468;-52
2022/11/10 09:03:07;;;;;;;1.60;1.50;;;;;;;21.45;47.03;96130.19;5112754;28;20812;-52
2022/11/10 09:05:36;;;;;;;0.97;0.93;;;;;;;22.26;46.48;96126.75;5113008;28;20796;-52
2022/11/10 09:08:04;;;;;;;10.40;1.63;;;;;;;22.03;46.00;96134.28;5112569;28;20432;-52
2022/11/10 09:10:34;;;;;;;17.90;2.37;;;;;;;22.81;45.06;96122.06;5112570;28;20439;-52
2022/11/10 09:13:04;;;;;;;5.90;2.03;;;;;;;22.85;44.59;96114.88;5112530;28;20432;-53
2022/11/10 09:15:33;;;;;;;2.40;1.23;;;;;;;22.15;45.56;96069.59;5112557;28;20932;-52
2022/11/10 09:18:03;;;;;;;2.10;2.00;;;;;;;22.23;45.61;96121.97;5112762;28;20447;-52
2022/11/10 09:20:35;;;;;;;1.43;1.37;;;;;;;22.59;45.25;96123.06;5111909;28;20460;-52
2022/11/10 09:23:08;;;;;;;1.00;1.00;;;;;;;23.23;44.29;96120.97;5112702;28;20436;-53
2022/11/10 09:25:37;;;;;;;1.93;1.20;;;;;;;22.46;44.87;96118.72;5112228;28;20487;-53
2022/11/10 09:28:05;;;;;;;1.63;1.53;;;;;;;22.81;45.29;96124.75;5112402;28;20432;-53
2022/11/10 09:30:34;;;;;;;1.90;1.80;;;;;;;22.92;44.94;96100.84;5112112;27;20462;-53
2022/11/10 09:33:02;;;;;;;1.90;0.70;;;;;;;23.56;44.87;96107.50;5112054;28;20432;-53
2022/11/10 09:35:30;;;;;;;1.80;1.70;;;;;;;23.63;43.65;96113.16;5112383;28;20776;-53
2022/11/10 09:38:00;;;;;;;1.40;1.23;;;;;;;23.25;43.47;96102.47;5112187;28;20455;-53
2022/11/10 09:40:38;;;;;;;3.50;1.90;;;;;;;23.04;43.54;96060.34;5111842;28;20480;-53
2022/11/10 09:43:15;;;;;;;3.00;2.73;;;;;;;23.19;44.17;96100.31;5112063;28;20438;-53
2022/11/10 09:45:47;;;;;;;2.63;1.93;;;;;;;23.63;43.86;96102.34;5111899;28;20428;-53
2022/11/10 09:48:19;;;;;;;1.40;1.30;;;;;;;23.63;44.00;96096.94;5112170;28;20812;-53
2022/11/10 09:50:52;;;;;;;0.87;0.87;;;;;;;23.45;42.95;96073.88;5112156;28;20436;-53
2022/11/10 09:53:27;;;;;;;2.40;2.20;;;;;;;23.97;42.78;96088.47;5111412;28;20444;-51
2022/11/10 09:56:02;;;;;;;0.50;0.50;;;;;;;24.44;41.85;96077.25;5111774;28;20427;-52
2022/11/10 09:58:37;;;;;;;4.60;1.77;;;;;;;24.80;42.28;96069.13;5111906;28;20498;-52
2022/11/10 10:01:18;;;;;;;2.73;2.40;;;;;;;25.10;40.69;96012.66;5111136;28;20458;-53
2022/11/10 10:03:50;;;;;;;2.20;2.10;;;;;;;25.41;40.42;96064.31;5111625;28;20436;-53
2022/11/10 10:06:21;;;;;;;2.77;1.90;;;;;;;25.09;40.89;96071.56;5111819;28;20428;-54
2022/11/10 10:09:02;;;;;;;3.47;2.67;;;;;;;25.48;40.95;96063.75;5111644;28;20499;-54
2022/11/10 10:11:43;;;;;;;1.83;1.73;;;;;;;25.41;40.47;96061.63;5112006;28;20939;-55
2022/11/10 10:14:22;;;;;;;3.13;1.70;;;;;;;24.81;41.40;96059.06;5111560;28;20434;-53
2022/11/10 10:16:58;;;;;;;2.37;2.20;;;;;;;24.94;40.83;96064.16;5111452;28;21042;-53
2022/11/10 10:19:37;;;;;;;1.33;1.23;;;;;;;25.07;40.75;96052.09;5111743;28;20497;-53
2022/11/10 10:22:29;;;;;;;1.20;1.10;;;;;;;26.17;40.12;96055.13;5111864;28;20798;-53
2022/11/10 10:25:04;;;;;;;1.07;1.00;;;;;;;25.47;40.71;96046.69;5111418;28;20431;-54
2022/11/10 10:27:34;;;;;;;1.90;1.80;;;;;;;25.05;40.88;96038.09;5111244;28;20860;-54
2022/11/10 10:30:12;;;;;;;1.70;0.80;;;;;;;25.46;40.51;96052.47;5111436;28;21057;-52
2022/11/10 10:32:44;;;;;;;1.37;1.37;;;;;;;25.32;40.96;96047.41;5111577;28;20431;-53
2022/11/10 10:35:14;;;;;;;1.40;1.30;;;;;;;27.53;37.77;96040.34;5110585;28;20426;-53
2022/11/10 10:37:48;;;;;;;0.80;0.80;;;;;;;27.62;37.65;96038.19;5111346;28;20469;-53
2022/11/10 10:40:22;;;;;;;2.03;1.20;;;;;;;27.50;36.58;96046.50;5111114;28;20473;-53
2022/11/10 10:42:51;;;;;;;1.30;1.30;;;;;;;26.37;39.28;96033.13;5111513;28;20431;-54
2022/11/10 10:45:23;;;;;;;1.63;1.40;;;;;;;25.32;39.46;95985.00;5111197;28;20432;-54
2022/11/10 10:47:52;;;;;;;3.30;3.20;;;;;;;25.00;41.56;96030.22;5111538;28;20422;-54
2022/11/10 10:50:24;;;;;;;3.60;1.07;;;;;;;25.31;39.69;96026.03;5111228;28;20446;-54
2022/11/10 10:53:07;;;;;;;5.30;1.63;;;;;;;25.86;38.58;96006.97;5111247;28;20432;-55
2022/11/10 10:55:37;;;;;;;1.03;1.03;;;;;;;27.29;38.03;96013.41;5111461;28;20420;-54
2022/11/10 10:58:20;;;;;;;1.93;1.30;;;;;;;26.62;37.47;96011.16;5111423;28;20431;-53
2022/11/10 11:00:51;;;;;;;2.17;0.70;;;;;;;27.53;36.18;96009.59;5114800;28;20463;-54
2022/11/10 11:03:26;;;;;;;0.93;0.93;;;;;;;27.12;36.59;96004.88;5115067;28;20503;-53
2022/11/10 11:06:06;;;;;;;1.77;1.67;;;;;;;26.36;37.08;96007.06;5114303;28;20438;-54
2022/11/10 11:08:35;;;;;;;0.90;0.90;;;;;;;26.52;37.56;95998.09;5114759;27;20423;-53
2022/11/10 11:11:10;;;;;;;0.93;0.93;;;;;;;26.66;37.21;95935.88;5114543;28;20428;-54
2022/11/10 11:13:39;;;;;;;2.90;1.73;;;;;;;26.00;38.70;95988.34;5114668;28;20435;-53
2022/11/10 11:16:11;;;;;;;1.33;1.23;;;;;;;27.26;37.31;95991.53;5114615;27;20428;-53
2022/11/10 11:18:40;;;;;;;1.87;1.77;;;;;;;27.04;36.56;95991.09;5114566;28;20431;-53
2022/11/10 11:21:18;;;;;;;0.63;0.63;;;;;;;28.31;35.22;95968.13;5114390;28;20471;-53
2022/11/10 11:24:07;;;;;;;2.83;0.93;;;;;;;27.07;35.90;95973.28;5114673;28;20420;-53
2022/11/10 11:26:47;;;;;;;2.37;2.27;;;;;;;27.38;36.46;95975.84;5113793;28;20471;-54
2022/11/10 11:29:29;;;;;;;0.90;0.90;;;;;;;27.62;35.42;95983.72;5114234;28;20435;-54
2022/11/10 11:32:13;;;;;;;0.97;0.87;;;;;;;28.09;35.29;95980.66;5113321;28;20815;-54
2022/11/10 11:34:55;;;;;;;0.60;0.60;;;;;;;27.76;35.12;95931.41;5114333;27;20431;-54
2022/11/10 11:37:34;;;;;;;0.90;0.90;;;;;;;27.47;35.63;95970.22;5114202;28;20423;-54
2022/11/10 11:40:19;;;;;;;5.60;1.03;;;;;;;27.87;35.38;95969.75;5113657;28;20492;-54
2022/11/10 11:43:00;;;;;;;1.53;1.43;;;;;;;28.85;34.39;95962.31;5114182;28;20446;-54
2022/11/10 11:45:40;;;;;;;0.90;0.60;;;;;;;27.92;35.51;95955.81;5114021;28;20431;-54
2022/11/10 11:48:29;;;;;;;1.97;1.87;;;;;;;26.96;36.70;95969.56;5113752;28;20438;-54
2022/11/10 11:51:04;;;;;;;1.73;1.63;;;;;;;27.65;35.97;95963.16;5113760;28;20438;-54
2022/11/10 11:53:46;;;;;;;0.60;0.53;;;;;;;28.18;35.79;95964.06;5113958;28;20430;-54
2022/11/10 11:56:23;;;;;;;3.13;1.63;;;;;;;27.76;35.52;95966.03;5112247;28;20828;-54
2022/11/10 11:59:03;;;;;;;0.80;0.80;;;;;;;29.29;33.79;95960.53;5113779;28;20433;-55
2022/11/10 12:01:49;;;;;;;0.97;0.77;;;;;;;29.27;33.90;95956.63;5113824;28;20473;-54